sensor_id;sensor_type;location;lat;lon;timestamp;P1;durP1;ratioP1;P2;durP2;ratioP2
46589;SDS011;32313;48.722;9.362;2022-11-15T00:00:25;26.83;;;23.93;;
46589;SDS011;32313;48.722;9.362;2022-11-15T00:03:09;29.13;;;22.90;;
46589;SDS011;32313;48.722;9.362;2022-11-15T00:06:00;23.53;;;21.13;;
46589;SDS011;32313;48.722;9.362;2022-11-15T00:08:46;24.20;;;21.60;;
46589;SDS011;32313;48.722;9.362;2022-11-15T00:11:30;24.03;;;20.40;;
46589;SDS011;32313;48.722;9.362;2022-11-15T00:14:14;25.67;;;23.10;;
46589;SDS011;32313;48.722;9.362;2022-11-15T00:16:58;24.13;;;21.80;;
46589;SDS011;32313;48.722;9.362;2022-11-15T00:19:43;25.17;;;22.53;;
46589;SDS011;32313;48.722;9.362;2022-11-15T00:22:33;21.07;;;19.07;;
46589;SDS011;32313;48.722;9.362;2022-11-15T00:25:17;22.33;;;20.13;;
46589;SDS011;32313;48.722;9.362;2022-11-15T00:28:01;23.13;;;20.97;;
46589;SDS011;32313;48.722;9.362;2022-11-15T00:30:45;24.47;;;21.90;;
46589;SDS011;32313;48.722;9.362;2022-11-15T00:33:29;21.40;;;19.17;;
46589;SDS011;32313;48.722;9.362;2022-11-15T00:36:14;24.53;;;21.97;;
46589;SDS011;32313;48.722;9.362;2022-11-15T00:38:58;22.77;;;20.53;;
46589;SDS011;32313;48.722;9.362;2022-11-15T00:41:42;23.73;;;21.53;;
46589;SDS011;32313;48.722;9.362;2022-11-15T00:44:26;22.63;;;20.27;;
46589;SDS011;32313;48.722;9.362;2022-11-15T00:47:11;24.63;;;21.93;;
46589;SDS011;32313;48.722;9.362;2022-11-15T00:49:55;23.80;;;21.40;;
46589;SDS011;32313;48.722;9.362;2022-11-15T00:52:39;26.73;;;24.00;;
46589;SDS011;32313;48.722;9.362;2022-11-15T00:55:23;24.43;;;22.03;;
46589;SDS011;32313;48.722;9.362;2022-11-15T00:58:07;23.80;;;21.40;;
46589;SDS011;32313;48.722;9.362;2022-11-15T01:00:51;25.63;;;22.60;;
46589;SDS011;32313;48.722;9.362;2022-11-15T01:03:36;23.80;;;21.40;;
46589;SDS011;32313;48.722;9.362;2022-11-15T01:06:21;25.57;;;23.00;;
46589;SDS011;32313;48.722;9.362;2022-11-15T01:09:06;24.13;;;21.67;;
46589;SDS011;32313;48.722;9.362;2022-11-15T01:11:50;24.07;;;21.63;;
46589;SDS011;32313;48.722;9.362;2022-11-15T01:18:21;25.43;;;22.83;;
46589;SDS011;32313;48.722;9.362;2022-11-15T01:21:09;26.37;;;23.60;;
46589;SDS011;32313;48.722;9.362;2022-11-15T01:23:56;23.90;;;21.40;;
46589;SDS011;32313;48.722;9.362;2022-11-15T01:26:41;25.20;;;22.57;;
46589;SDS011;32313;48.722;9.362;2022-11-15T01:29:25;25.63;;;22.90;;
46589;SDS011;32313;48.722;9.362;2022-11-15T01:32:09;26.13;;;23.63;;
46589;SDS011;32313;48.722;9.362;2022-11-15T01:34:53;25.30;;;22.83;;
46589;SDS011;32313;48.722;9.362;2022-11-15T01:37:37;25.87;;;23.17;;
46589;SDS011;32313;48.722;9.362;2022-11-15T01:40:21;30.70;;;26.63;;
46589;SDS011;32313;48.722;9.362;2022-11-15T01:49:14;27.40;;;24.60;;
46589;SDS011;32313;48.722;9.362;2022-11-15T01:52:04;27.50;;;24.20;;
46589;SDS011;32313;48.722;9.362;2022-11-15T01:54:53;28.37;;;25.20;;
46589;SDS011;32313;48.722;9.362;2022-11-15T01:57:46;28.23;;;25.20;;
46589;SDS011;32313;48.722;9.362;2022-11-15T02:00:33;28.47;;;25.47;;
46589;SDS011;32313;48.722;9.362;2022-11-15T02:03:17;27.60;;;24.80;;
46589;SDS011;32313;48.722;9.362;2022-11-15T02:06:03;31.03;;;27.67;;
46589;SDS011;32313;48.722;9.362;2022-11-15T02:08:49;30.03;;;25.53;;
46589;SDS011;32313;48.722;9.362;2022-11-15T02:11:34;33.23;;;25.97;;
46589;SDS011;32313;48.722;9.362;2022-11-15T02:14:19;31.10;;;27.03;;
46589;SDS011;32313;48.722;9.362;2022-11-15T02:17:12;29.77;;;26.57;;
46589;SDS011;32313;48.722;9.362;2022-11-15T02:23:33;28.50;;;25.43;;
46589;SDS011;32313;48.722;9.362;2022-11-15T02:29:35;27.57;;;24.57;;
46589;SDS011;32313;48.722;9.362;2022-11-15T02:35:32;30.43;;;27.23;;
46589;SDS011;32313;48.722;9.362;2022-11-15T02:41:47;29.03;;;26.13;;
46589;SDS011;32313;48.722;9.362;2022-11-15T02:44:47;32.83;;;27.97;;
46589;SDS011;32313;48.722;9.362;2022-11-15T02:47:34;33.27;;;27.93;;
46589;SDS011;32313;48.722;9.362;2022-11-15T02:50:27;31.93;;;26.73;;
46589;SDS011;32313;48.722;9.362;2022-11-15T02:53:14;33.53;;;28.07;;
46589;SDS011;32313;48.722;9.362;2022-11-15T02:55:58;33.97;;;29.63;;
46589;SDS011;32313;48.722;9.362;2022-11-15T03:07:37;31.47;;;28.23;;
46589;SDS011;32313;48.722;9.362;2022-11-15T03:20:03;36.90;;;29.93;;
46589;SDS011;32313;48.722;9.362;2022-11-15T03:22:49;33.87;;;28.80;;
46589;SDS011;32313;48.722;9.362;2022-11-15T03:25:36;32.87;;;29.00;;
46589;SDS011;32313;48.722;9.362;2022-11-15T03:28:27;31.23;;;27.93;;
46589;SDS011;32313;48.722;9.362;2022-11-15T03:31:19;34.43;;;29.17;;
46589;SDS011;32313;48.722;9.362;2022-11-15T03:34:26;33.23;;;28.80;;
46589;SDS011;32313;48.722;9.362;2022-11-15T03:37:15;29.03;;;25.90;;
46589;SDS011;32313;48.722;9.362;2022-11-15T03:40:01;29.43;;;26.27;;
46589;SDS011;32313;48.722;9.362;2022-11-15T03:45:55;31.27;;;27.57;;
46589;SDS011;32313;48.722;9.362;2022-11-15T03:52:06;34.90;;;28.83;;
46589;SDS011;32313;48.722;9.362;2022-11-15T03:54:52;32.63;;;28.30;;
46589;SDS011;32313;48.722;9.362;2022-11-15T03:57:38;36.40;;;30.43;;
46589;SDS011;32313;48.722;9.362;2022-11-15T04:00:22;33.50;;;28.80;;
46589;SDS011;32313;48.722;9.362;2022-11-15T04:03:07;33.40;;;29.63;;
46589;SDS011;32313;48.722;9.362;2022-11-15T04:05:51;30.27;;;27.07;;
46589;SDS011;32313;48.722;9.362;2022-11-15T04:08:35;29.73;;;26.50;;
46589;SDS011;32313;48.722;9.362;2022-11-15T04:11:19;31.20;;;27.90;;
46589;SDS011;32313;48.722;9.362;2022-11-15T04:14:03;32.30;;;28.80;;
46589;SDS011;32313;48.722;9.362;2022-11-15T04:16:47;31.93;;;28.53;;
46589;SDS011;32313;48.722;9.362;2022-11-15T04:19:32;29.47;;;26.57;;
46589;SDS011;32313;48.722;9.362;2022-11-15T04:22:35;30.47;;;27.17;;
46589;SDS011;32313;48.722;9.362;2022-11-15T04:25:38;32.03;;;28.67;;
46589;SDS011;32313;48.722;9.362;2022-11-15T04:28:23;31.10;;;27.90;;
46589;SDS011;32313;48.722;9.362;2022-11-15T04:31:07;30.37;;;26.23;;
46589;SDS011;32313;48.722;9.362;2022-11-15T04:33:51;29.13;;;26.10;;
46589;SDS011;32313;48.722;9.362;2022-11-15T04:36:35;31.97;;;27.00;;
46589;SDS011;32313;48.722;9.362;2022-11-15T04:39:39;30.03;;;26.27;;
46589;SDS011;32313;48.722;9.362;2022-11-15T04:42:24;30.67;;;27.47;;
46589;SDS011;32313;48.722;9.362;2022-11-15T04:45:08;28.53;;;25.53;;
46589;SDS011;32313;48.722;9.362;2022-11-15T04:47:53;28.67;;;25.77;;
46589;SDS011;32313;48.722;9.362;2022-11-15T04:50:37;27.60;;;24.83;;
46589;SDS011;32313;48.722;9.362;2022-11-15T04:53:21;26.70;;;23.97;;
46589;SDS011;32313;48.722;9.362;2022-11-15T04:56:05;27.03;;;24.23;;
46589;SDS011;32313;48.722;9.362;2022-11-15T04:58:51;29.23;;;26.30;;
46589;SDS011;32313;48.722;9.362;2022-11-15T05:01:34;29.87;;;25.93;;
46589;SDS011;32313;48.722;9.362;2022-11-15T05:04:18;27.33;;;24.60;;
46589;SDS011;32313;48.722;9.362;2022-11-15T05:07:03;31.93;;;26.23;;
46589;SDS011;32313;48.722;9.362;2022-11-15T05:09:50;27.63;;;24.83;;
46589;SDS011;32313;48.722;9.362;2022-11-15T05:12:35;27.63;;;24.80;;
46589;SDS011;32313;48.722;9.362;2022-11-15T05:15:19;29.30;;;26.27;;
46589;SDS011;32313;48.722;9.362;2022-11-15T05:18:03;30.03;;;26.47;;
46589;SDS011;32313;48.722;9.362;2022-11-15T05:20:47;29.63;;;26.13;;
46589;SDS011;32313;48.722;9.362;2022-11-15T05:23:32;27.97;;;25.13;;
46589;SDS011;32313;48.722;9.362;2022-11-15T05:26:16;27.90;;;24.97;;
46589;SDS011;32313;48.722;9.362;2022-11-15T05:29:01;29.83;;;26.17;;
46589;SDS011;32313;48.722;9.362;2022-11-15T05:31:47;30.13;;;26.37;;
46589;SDS011;32313;48.722;9.362;2022-11-15T05:34:32;32.60;;;25.57;;
46589;SDS011;32313;48.722;9.362;2022-11-15T05:37:16;27.63;;;24.50;;
46589;SDS011;32313;48.722;9.362;2022-11-15T05:40:01;32.50;;;28.23;;
46589;SDS011;32313;48.722;9.362;2022-11-15T05:42:45;28.73;;;25.63;;
46589;SDS011;32313;48.722;9.362;2022-11-15T05:45:31;36.43;;;30.43;;
46589;SDS011;32313;48.722;9.362;2022-11-15T05:48:17;30.07;;;26.40;;
46589;SDS011;32313;48.722;9.362;2022-11-15T05:51:02;32.33;;;26.87;;
46589;SDS011;32313;48.722;9.362;2022-11-15T05:53:48;28.47;;;25.30;;
46589;SDS011;32313;48.722;9.362;2022-11-15T05:56:33;29.53;;;26.43;;
46589;SDS011;32313;48.722;9.362;2022-11-15T05:59:23;28.90;;;25.80;;
46589;SDS011;32313;48.722;9.362;2022-11-15T06:02:07;29.07;;;26.07;;
46589;SDS011;32313;48.722;9.362;2022-11-15T06:04:51;31.60;;;25.53;;
46589;SDS011;32313;48.722;9.362;2022-11-15T06:07:36;27.87;;;23.87;;
46589;SDS011;32313;48.722;9.362;2022-11-15T06:10:20;29.17;;;24.60;;
46589;SDS011;32313;48.722;9.362;2022-11-15T06:13:05;30.30;;;26.30;;
46589;SDS011;32313;48.722;9.362;2022-11-15T06:15:49;28.93;;;25.60;;
46589;SDS011;32313;48.722;9.362;2022-11-15T06:18:33;31.73;;;26.87;;
46589;SDS011;32313;48.722;9.362;2022-11-15T06:21:18;28.60;;;25.53;;
46589;SDS011;32313;48.722;9.362;2022-11-15T06:24:02;31.43;;;26.47;;
46589;SDS011;32313;48.722;9.362;2022-11-15T06:26:47;28.93;;;25.83;;
46589;SDS011;32313;48.722;9.362;2022-11-15T06:29:31;26.87;;;23.83;;
46589;SDS011;32313;48.722;9.362;2022-11-15T06:32:15;29.70;;;25.67;;
46589;SDS011;32313;48.722;9.362;2022-11-15T06:34:59;31.00;;;27.17;;
46589;SDS011;32313;48.722;9.362;2022-11-15T06:37:43;30.50;;;27.20;;
46589;SDS011;32313;48.722;9.362;2022-11-15T06:40:27;119.10;;;46.07;;
46589;SDS011;32313;48.722;9.362;2022-11-15T06:43:12;94.50;;;40.90;;
46589;SDS011;32313;48.722;9.362;2022-11-15T06:46:00;140.10;;;53.40;;
46589;SDS011;32313;48.722;9.362;2022-11-15T06:48:45;133.40;;;52.87;;
46589;SDS011;32313;48.722;9.362;2022-11-15T06:51:30;68.67;;;39.40;;
46589;SDS011;32313;48.722;9.362;2022-11-15T06:54:14;84.80;;;43.10;;
46589;SDS011;32313;48.722;9.362;2022-11-15T06:56:58;57.70;;;34.53;;
46589;SDS011;32313;48.722;9.362;2022-11-15T06:59:45;60.83;;;35.77;;
46589;SDS011;32313;48.722;9.362;2022-11-15T07:02:29;38.87;;;29.53;;
46589;SDS011;32313;48.722;9.362;2022-11-15T07:05:13;46.83;;;32.00;;
46589;SDS011;32313;48.722;9.362;2022-11-15T07:07:58;38.30;;;30.47;;
46589;SDS011;32313;48.722;9.362;2022-11-15T07:10:42;38.73;;;29.33;;
46589;SDS011;32313;48.722;9.362;2022-11-15T07:13:27;32.33;;;27.30;;
46589;SDS011;32313;48.722;9.362;2022-11-15T07:16:12;34.47;;;28.40;;
46589;SDS011;32313;48.722;9.362;2022-11-15T07:18:56;32.97;;;29.17;;
46589;SDS011;32313;48.722;9.362;2022-11-15T07:21:41;36.10;;;27.37;;
46589;SDS011;32313;48.722;9.362;2022-11-15T07:24:26;30.77;;;25.97;;
46589;SDS011;32313;48.722;9.362;2022-11-15T07:27:10;33.57;;;26.53;;
46589;SDS011;32313;48.722;9.362;2022-11-15T07:29:54;33.03;;;26.87;;
46589;SDS011;32313;48.722;9.362;2022-11-15T07:32:38;27.50;;;23.53;;
46589;SDS011;32313;48.722;9.362;2022-11-15T07:35:22;28.17;;;25.27;;
46589;SDS011;32313;48.722;9.362;2022-11-15T07:38:07;26.73;;;24.07;;
46589;SDS011;32313;48.722;9.362;2022-11-15T07:40:58;29.60;;;26.47;;
46589;SDS011;32313;48.722;9.362;2022-11-15T07:43:44;29.10;;;23.70;;
46589;SDS011;32313;48.722;9.362;2022-11-15T07:46:28;28.27;;;25.17;;
46589;SDS011;32313;48.722;9.362;2022-11-15T07:49:12;27.33;;;24.53;;
46589;SDS011;32313;48.722;9.362;2022-11-15T07:51:56;25.23;;;22.77;;
46589;SDS011;32313;48.722;9.362;2022-11-15T07:54:40;25.70;;;23.00;;
46589;SDS011;32313;48.722;9.362;2022-11-15T07:57:25;25.90;;;23.17;;
46589;SDS011;32313;48.722;9.362;2022-11-15T08:00:10;27.80;;;25.00;;
46589;SDS011;32313;48.722;9.362;2022-11-15T08:03:01;21.50;;;19.47;;
46589;SDS011;32313;48.722;9.362;2022-11-15T08:05:57;26.00;;;23.40;;
46589;SDS011;32313;48.722;9.362;2022-11-15T08:08:42;24.40;;;21.90;;
46589;SDS011;32313;48.722;9.362;2022-11-15T08:11:26;24.70;;;22.13;;
46589;SDS011;32313;48.722;9.362;2022-11-15T08:14:10;24.53;;;22.10;;
46589;SDS011;32313;48.722;9.362;2022-11-15T08:16:54;22.63;;;20.33;;
46589;SDS011;32313;48.722;9.362;2022-11-15T08:19:39;20.70;;;18.63;;
46589;SDS011;32313;48.722;9.362;2022-11-15T08:22:23;21.00;;;18.77;;
46589;SDS011;32313;48.722;9.362;2022-11-15T08:25:07;20.87;;;17.97;;
46589;SDS011;32313;48.722;9.362;2022-11-15T08:27:55;25.20;;;17.50;;
46589;SDS011;32313;48.722;9.362;2022-11-15T08:30:44;30.67;;;17.40;;
46589;SDS011;32313;48.722;9.362;2022-11-15T08:33:29;16.50;;;14.80;;
46589;SDS011;32313;48.722;9.362;2022-11-15T08:36:15;16.10;;;13.60;;
46589;SDS011;32313;48.722;9.362;2022-11-15T08:39:00;14.57;;;12.43;;
46589;SDS011;32313;48.722;9.362;2022-11-15T08:41:44;15.33;;;10.77;;
46589;SDS011;32313;48.722;9.362;2022-11-15T08:44:28;13.47;;;10.80;;
46589;SDS011;32313;48.722;9.362;2022-11-15T08:47:12;14.90;;;10.93;;
46589;SDS011;32313;48.722;9.362;2022-11-15T08:49:57;12.97;;;11.60;;
46589;SDS011;32313;48.722;9.362;2022-11-15T08:52:42;16.83;;;11.67;;
46589;SDS011;32313;48.722;9.362;2022-11-15T08:55:26;16.10;;;12.13;;
46589;SDS011;32313;48.722;9.362;2022-11-15T08:58:10;13.23;;;10.90;;
46589;SDS011;32313;48.722;9.362;2022-11-15T09:00:54;118.67;;;17.53;;
46589;SDS011;32313;48.722;9.362;2022-11-15T09:03:39;13.43;;;9.87;;
46589;SDS011;32313;48.722;9.362;2022-11-15T09:06:27;13.70;;;10.50;;
46589;SDS011;32313;48.722;9.362;2022-11-15T09:09:11;13.10;;;10.60;;
46589;SDS011;32313;48.722;9.362;2022-11-15T09:11:55;14.73;;;10.73;;
46589;SDS011;32313;48.722;9.362;2022-11-15T09:14:39;13.20;;;11.13;;
46589;SDS011;32313;48.722;9.362;2022-11-15T09:17:23;11.90;;;10.27;;
46589;SDS011;32313;48.722;9.362;2022-11-15T09:20:08;17.70;;;11.87;;
46589;SDS011;32313;48.722;9.362;2022-11-15T09:22:52;15.20;;;11.33;;
46589;SDS011;32313;48.722;9.362;2022-11-15T09:25:36;16.67;;;11.73;;
46589;SDS011;32313;48.722;9.362;2022-11-15T09:28:20;19.57;;;12.43;;
46589;SDS011;32313;48.722;9.362;2022-11-15T09:31:05;17.97;;;10.93;;
46589;SDS011;32313;48.722;9.362;2022-11-15T09:33:50;15.83;;;10.73;;
46589;SDS011;32313;48.722;9.362;2022-11-15T09:36:34;13.90;;;11.13;;
46589;SDS011;32313;48.722;9.362;2022-11-15T09:39:18;15.53;;;9.87;;
46589;SDS011;32313;48.722;9.362;2022-11-15T09:48:50;13.00;;;9.77;;
46589;SDS011;32313;48.722;9.362;2022-11-15T09:51:50;18.03;;;10.70;;
46589;SDS011;32313;48.722;9.362;2022-11-15T09:54:40;16.57;;;10.30;;
46589;SDS011;32313;48.722;9.362;2022-11-15T09:57:13;13.73;;;9.77;;
46589;SDS011;32313;48.722;9.362;2022-11-15T10:05:20;13.40;;;9.83;;
46589;SDS011;32313;48.722;9.362;2022-11-15T10:08:11;10.33;;;9.23;;
46589;SDS011;32313;48.722;9.362;2022-11-15T10:10:43;10.83;;;9.47;;
46589;SDS011;32313;48.722;9.362;2022-11-15T10:13:22;9.50;;;8.50;;
46589;SDS011;32313;48.722;9.362;2022-11-15T10:15:51;11.07;;;8.20;;
46589;SDS011;32313;48.722;9.362;2022-11-15T10:18:31;8.70;;;7.73;;
46589;SDS011;32313;48.722;9.362;2022-11-15T10:21:26;11.40;;;8.30;;
46589;SDS011;32313;48.722;9.362;2022-11-15T10:23:54;9.50;;;7.63;;
46589;SDS011;32313;48.722;9.362;2022-11-15T10:26:20;12.20;;;8.70;;
46589;SDS011;32313;48.722;9.362;2022-11-15T10:28:46;9.47;;;8.43;;
46589;SDS011;32313;48.722;9.362;2022-11-15T10:31:25;10.17;;;8.33;;
46589;SDS011;32313;48.722;9.362;2022-11-15T10:34:12;10.40;;;8.83;;
46589;SDS011;32313;48.722;9.362;2022-11-15T10:36:44;10.10;;;8.00;;
46589;SDS011;32313;48.722;9.362;2022-11-15T10:39:12;10.00;;;8.23;;
46589;SDS011;32313;48.722;9.362;2022-11-15T10:41:39;10.20;;;8.20;;
46589;SDS011;32313;48.722;9.362;2022-11-15T10:46:32;9.13;;;8.20;;
46589;SDS011;32313;48.722;9.362;2022-11-15T10:51:57;12.87;;;9.73;;
46589;SDS011;32313;48.722;9.362;2022-11-15T10:54:39;15.67;;;8.73;;
46589;SDS011;32313;48.722;9.362;2022-11-15T10:57:11;11.57;;;9.40;;
46589;SDS011;32313;48.722;9.362;2022-11-15T10:59:46;13.00;;;8.93;;
46589;SDS011;32313;48.722;9.362;2022-11-15T11:05:02;12.70;;;8.97;;
46589;SDS011;32313;48.722;9.362;2022-11-15T11:07:32;12.90;;;8.87;;
46589;SDS011;32313;48.722;9.362;2022-11-15T11:12:29;9.57;;;8.40;;
46589;SDS011;32313;48.722;9.362;2022-11-15T11:14:57;10.60;;;8.33;;
46589;SDS011;32313;48.722;9.362;2022-11-15T11:17:32;18.53;;;10.23;;
46589;SDS011;32313;48.722;9.362;2022-11-15T11:20:23;10.23;;;8.97;;
46589;SDS011;32313;48.722;9.362;2022-11-15T11:43:20;11.07;;;8.47;;
46589;SDS011;32313;48.722;9.362;2022-11-15T11:46:15;11.67;;;9.37;;
46589;SDS011;32313;48.722;9.362;2022-11-15T11:48:55;9.80;;;8.70;;
46589;SDS011;32313;48.722;9.362;2022-11-15T11:51:34;9.20;;;8.27;;
46589;SDS011;32313;48.722;9.362;2022-11-15T11:54:24;13.47;;;8.73;;
46589;SDS011;32313;48.722;9.362;2022-11-15T11:57:04;10.60;;;9.50;;
46589;SDS011;32313;48.722;9.362;2022-11-15T11:59:51;11.27;;;10.00;;
46589;SDS011;32313;48.722;9.362;2022-11-15T12:02:28;11.63;;;9.77;;
46589;SDS011;32313;48.722;9.362;2022-11-15T12:07:54;16.13;;;11.60;;
46589;SDS011;32313;48.722;9.362;2022-11-15T12:10:29;12.83;;;10.67;;
46589;SDS011;32313;48.722;9.362;2022-11-15T12:12:59;13.80;;;11.37;;
46589;SDS011;32313;48.722;9.362;2022-11-15T12:15:27;14.23;;;11.20;;
46589;SDS011;32313;48.722;9.362;2022-11-15T12:18:02;14.30;;;10.33;;
46589;SDS011;32313;48.722;9.362;2022-11-15T12:20:30;11.73;;;10.17;;
46589;SDS011;32313;48.722;9.362;2022-11-15T12:25:44;11.00;;;9.83;;
46589;SDS011;32313;48.722;9.362;2022-11-15T12:28:16;13.23;;;10.60;;
46589;SDS011;32313;48.722;9.362;2022-11-15T12:33:29;11.23;;;9.77;;
46589;SDS011;32313;48.722;9.362;2022-11-15T12:36:01;11.17;;;9.87;;
46589;SDS011;32313;48.722;9.362;2022-11-15T12:41:34;10.13;;;9.13;;
46589;SDS011;32313;48.722;9.362;2022-11-15T12:44:01;12.17;;;9.30;;
46589;SDS011;32313;48.722;9.362;2022-11-15T12:48:58;8.97;;;7.67;;
46589;SDS011;32313;48.722;9.362;2022-11-15T13:02:33;8.70;;;7.00;;
46589;SDS011;32313;48.722;9.362;2022-11-15T13:17:40;10.80;;;7.80;;
46589;SDS011;32313;48.722;9.362;2022-11-15T13:30:40;11.23;;;8.73;;
46589;SDS011;32313;48.722;9.362;2022-11-15T13:33:14;9.30;;;8.33;;
46589;SDS011;32313;48.722;9.362;2022-11-15T13:35:45;9.17;;;7.47;;
46589;SDS011;32313;48.722;9.362;2022-11-15T13:38:18;11.00;;;8.63;;
46589;SDS011;32313;48.722;9.362;2022-11-15T13:40:52;10.60;;;7.57;;
46589;SDS011;32313;48.722;9.362;2022-11-15T13:46:04;8.97;;;7.53;;
46589;SDS011;32313;48.722;9.362;2022-11-15T13:48:30;9.50;;;7.10;;
46589;SDS011;32313;48.722;9.362;2022-11-15T13:50:55;8.67;;;7.50;;
46589;SDS011;32313;48.722;9.362;2022-11-15T13:53:22;8.53;;;6.97;;
46589;SDS011;32313;48.722;9.362;2022-11-15T13:55:48;7.57;;;6.77;;
46589;SDS011;32313;48.722;9.362;2022-11-15T13:58:15;11.73;;;7.17;;
46589;SDS011;32313;48.722;9.362;2022-11-15T14:00:42;10.53;;;7.23;;
46589;SDS011;32313;48.722;9.362;2022-11-15T14:05:44;7.90;;;7.10;;
46589;SDS011;32313;48.722;9.362;2022-11-15T14:08:24;8.80;;;6.70;;
46589;SDS011;32313;48.722;9.362;2022-11-15T14:11:05;9.07;;;8.20;;
46589;SDS011;32313;48.722;9.362;2022-11-15T14:13:34;7.70;;;6.73;;
46589;SDS011;32313;48.722;9.362;2022-11-15T14:16:13;9.53;;;7.40;;
46589;SDS011;32313;48.722;9.362;2022-11-15T14:21:11;8.23;;;7.40;;
46589;SDS011;32313;48.722;9.362;2022-11-15T14:23:37;9.27;;;6.70;;
46589;SDS011;32313;48.722;9.362;2022-11-15T14:26:03;11.87;;;7.40;;
46589;SDS011;32313;48.722;9.362;2022-11-15T14:28:32;12.33;;;7.57;;
46589;SDS011;32313;48.722;9.362;2022-11-15T14:31:04;7.77;;;6.97;;
46589;SDS011;32313;48.722;9.362;2022-11-15T14:33:36;9.10;;;7.57;;
46589;SDS011;32313;48.722;9.362;2022-11-15T14:36:14;10.43;;;8.17;;
46589;SDS011;32313;48.722;9.362;2022-11-15T14:38:41;8.60;;;7.23;;
46589;SDS011;32313;48.722;9.362;2022-11-15T14:43:44;11.57;;;8.00;;
46589;SDS011;32313;48.722;9.362;2022-11-15T14:46:09;12.10;;;8.37;;
46589;SDS011;32313;48.722;9.362;2022-11-15T14:48:35;10.70;;;7.93;;
46589;SDS011;32313;48.722;9.362;2022-11-15T14:51:01;11.87;;;8.70;;
46589;SDS011;32313;48.722;9.362;2022-11-15T14:53:27;12.70;;;8.67;;
46589;SDS011;32313;48.722;9.362;2022-11-15T14:55:52;9.87;;;8.17;;
46589;SDS011;32313;48.722;9.362;2022-11-15T14:58:18;14.83;;;8.77;;
46589;SDS011;32313;48.722;9.362;2022-11-15T15:00:44;12.03;;;7.90;;
46589;SDS011;32313;48.722;9.362;2022-11-15T15:03:10;10.17;;;8.30;;
46589;SDS011;32313;48.722;9.362;2022-11-15T15:05:37;12.50;;;8.93;;
46589;SDS011;32313;48.722;9.362;2022-11-15T15:08:08;12.10;;;9.00;;
46589;SDS011;32313;48.722;9.362;2022-11-15T15:10:41;14.27;;;10.30;;
46589;SDS011;32313;48.722;9.362;2022-11-15T15:13:16;13.30;;;10.30;;
46589;SDS011;32313;48.722;9.362;2022-11-15T15:15:47;12.63;;;9.50;;
46589;SDS011;32313;48.722;9.362;2022-11-15T15:18:14;12.13;;;8.67;;
46589;SDS011;32313;48.722;9.362;2022-11-15T15:20:41;12.90;;;9.80;;
46589;SDS011;32313;48.722;9.362;2022-11-15T15:23:12;11.70;;;9.93;;
46589;SDS011;32313;48.722;9.362;2022-11-15T15:25:41;9.70;;;8.63;;
46589;SDS011;32313;48.722;9.362;2022-11-15T15:28:07;12.90;;;9.37;;
46589;SDS011;32313;48.722;9.362;2022-11-15T15:30:32;9.63;;;8.17;;
46589;SDS011;32313;48.722;9.362;2022-11-15T15:32:58;11.83;;;8.37;;
46589;SDS011;32313;48.722;9.362;2022-11-15T15:35:23;10.63;;;8.90;;
46589;SDS011;32313;48.722;9.362;2022-11-15T15:37:55;10.77;;;9.10;;
46589;SDS011;32313;48.722;9.362;2022-11-15T15:40:21;11.30;;;8.67;;
46589;SDS011;32313;48.722;9.362;2022-11-15T15:42:48;10.83;;;9.00;;
46589;SDS011;32313;48.722;9.362;2022-11-15T15:45:14;9.97;;;8.90;;
46589;SDS011;32313;48.722;9.362;2022-11-15T15:47:41;12.50;;;8.13;;
46589;SDS011;32313;48.722;9.362;2022-11-15T15:50:24;10.77;;;8.50;;
46589;SDS011;32313;48.722;9.362;2022-11-15T15:52:52;9.97;;;8.73;;
46589;SDS011;32313;48.722;9.362;2022-11-15T15:55:20;8.80;;;7.97;;
46589;SDS011;32313;48.722;9.362;2022-11-15T15:57:47;12.47;;;9.90;;
46589;SDS011;32313;48.722;9.362;2022-11-15T16:00:14;13.10;;;9.40;;
46589;SDS011;32313;48.722;9.362;2022-11-15T16:02:41;11.27;;;8.63;;
46589;SDS011;32313;48.722;9.362;2022-11-15T16:05:07;12.77;;;8.60;;
46589;SDS011;32313;48.722;9.362;2022-11-15T16:07:33;11.97;;;10.00;;
46589;SDS011;32313;48.722;9.362;2022-11-15T16:09:59;11.70;;;8.33;;
46589;SDS011;32313;48.722;9.362;2022-11-15T16:12:25;12.13;;;8.97;;
46589;SDS011;32313;48.722;9.362;2022-11-15T16:14:58;11.83;;;8.73;;
46589;SDS011;32313;48.722;9.362;2022-11-15T16:17:26;11.73;;;9.70;;
46589;SDS011;32313;48.722;9.362;2022-11-15T16:19:55;14.27;;;11.57;;
46589;SDS011;32313;48.722;9.362;2022-11-15T16:22:20;15.17;;;12.90;;
46589;SDS011;32313;48.722;9.362;2022-11-15T16:24:46;15.77;;;12.67;;
46589;SDS011;32313;48.722;9.362;2022-11-15T16:27:16;17.33;;;14.53;;
46589;SDS011;32313;48.722;9.362;2022-11-15T16:29:44;17.17;;;14.60;;
46589;SDS011;32313;48.722;9.362;2022-11-15T16:32:10;15.70;;;14.20;;
46589;SDS011;32313;48.722;9.362;2022-11-15T16:34:36;18.50;;;15.13;;
46589;SDS011;32313;48.722;9.362;2022-11-15T16:37:02;15.23;;;12.83;;
46589;SDS011;32313;48.722;9.362;2022-11-15T16:39:28;15.20;;;12.73;;
46589;SDS011;32313;48.722;9.362;2022-11-15T16:41:58;15.97;;;12.13;;
46589;SDS011;32313;48.722;9.362;2022-11-15T16:44:24;14.30;;;11.77;;
46589;SDS011;32313;48.722;9.362;2022-11-15T16:46:51;13.80;;;11.03;;
46589;SDS011;32313;48.722;9.362;2022-11-15T16:49:20;15.27;;;11.03;;
46589;SDS011;32313;48.722;9.362;2022-11-15T16:51:48;14.73;;;11.43;;
46589;SDS011;32313;48.722;9.362;2022-11-15T16:54:14;16.33;;;11.33;;
46589;SDS011;32313;48.722;9.362;2022-11-15T16:56:40;16.43;;;11.37;;
46589;SDS011;32313;48.722;9.362;2022-11-15T16:59:06;14.67;;;11.90;;
46589;SDS011;32313;48.722;9.362;2022-11-15T17:01:38;12.53;;;11.20;;
46589;SDS011;32313;48.722;9.362;2022-11-15T17:04:14;14.97;;;12.37;;
46589;SDS011;32313;48.722;9.362;2022-11-15T17:06:41;17.00;;;12.33;;
46589;SDS011;32313;48.722;9.362;2022-11-15T17:09:12;14.97;;;12.37;;
46589;SDS011;32313;48.722;9.362;2022-11-15T17:11:39;15.77;;;12.67;;
46589;SDS011;32313;48.722;9.362;2022-11-15T17:14:06;14.07;;;12.67;;
46589;SDS011;32313;48.722;9.362;2022-11-15T17:16:31;18.30;;;14.20;;
46589;SDS011;32313;48.722;9.362;2022-11-15T17:18:58;15.37;;;13.77;;
46589;SDS011;32313;48.722;9.362;2022-11-15T17:21:24;17.33;;;15.20;;
46589;SDS011;32313;48.722;9.362;2022-11-15T17:23:52;18.03;;;15.10;;
46589;SDS011;32313;48.722;9.362;2022-11-15T17:26:18;18.47;;;16.27;;
46589;SDS011;32313;48.722;9.362;2022-11-15T17:28:44;16.17;;;14.07;;
46589;SDS011;32313;48.722;9.362;2022-11-15T17:31:10;15.93;;;14.13;;
46589;SDS011;32313;48.722;9.362;2022-11-15T17:33:38;18.97;;;14.77;;
46589;SDS011;32313;48.722;9.362;2022-11-15T17:36:09;16.43;;;13.43;;
46589;SDS011;32313;48.722;9.362;2022-11-15T17:38:36;15.33;;;13.73;;
46589;SDS011;32313;48.722;9.362;2022-11-15T17:41:06;15.43;;;13.83;;
46589;SDS011;32313;48.722;9.362;2022-11-15T17:43:35;15.13;;;13.53;;
46589;SDS011;32313;48.722;9.362;2022-11-15T17:46:03;14.60;;;13.00;;
46589;SDS011;32313;48.722;9.362;2022-11-15T17:48:30;15.57;;;13.47;;
46589;SDS011;32313;48.722;9.362;2022-11-15T17:51:00;16.20;;;13.70;;
46589;SDS011;32313;48.722;9.362;2022-11-15T17:53:31;16.77;;;13.27;;
46589;SDS011;32313;48.722;9.362;2022-11-15T17:56:08;14.73;;;13.00;;
46589;SDS011;32313;48.722;9.362;2022-11-15T17:58:36;15.40;;;12.23;;
46589;SDS011;32313;48.722;9.362;2022-11-15T18:01:08;16.10;;;13.23;;
46589;SDS011;32313;48.722;9.362;2022-11-15T18:03:40;16.30;;;12.07;;